Time;durP1;ratioP1;P1;durP2;ratioP2;P2;SDS_P1;SDS_P2;PMS_P1;PMS_P2;Temp;Humidity;BMP_temperature;BMP_pressure;BME280_temperature;BME280_humidity;BME280_pressure;Samples;Min_cycle;Max_cycle;Signal;HPM_P1;HPM_P2
2023/10/06 00:02:30;;;;;;;13.50;4.30;;;6.10;99.90;;;;;;5017637;28;19908;-78
2023/10/06 00:05:11;;;;;;;8.00;3.15;;;6.20;99.90;;;;;;5000379;28;20057;-78
2023/10/06 00:07:57;;;;;;;5.43;2.65;;;6.20;99.90;;;;;;5021341;28;20119;-78
2023/10/06 00:10:27;;;;;;;8.82;2.70;;;6.10;99.90;;;;;;5020605;28;20062;-78
2023/10/06 00:13:04;;;;;;;6.53;2.70;;;6.00;99.90;;;;;;5021508;28;20006;-79
2023/10/06 00:15:40;;;;;;;3.35;2.65;;;5.90;99.90;;;;;;5020951;28;20022;-77
2023/10/06 00:18:16;;;;;;;5.20;3.20;;;5.90;99.90;;;;;;5003138;28;20019;-78
2023/10/06 00:21:04;;;;;;;10.90;3.92;;;6.00;99.90;;;;;;5020459;28;20038;-80
2023/10/06 00:23:39;;;;;;;4.63;2.72;;;5.90;99.90;;;;;;5021856;28;20037;-81
2023/10/06 00:26:12;;;;;;;10.85;3.22;;;6.00;99.90;;;;;;5004994;28;20132;-81
2023/10/06 00:28:39;;;;;;;12.27;4.35;;;6.00;99.90;;;;;;5021795;28;20046;-80
2023/10/06 00:31:11;;;;;;;11.57;3.33;;;6.00;99.90;;;;;;5021836;28;20022;-81
2023/10/06 00:34:00;;;;;;;12.50;3.25;;;6.00;99.90;;;;;;5018370;28;20042;-78
2023/10/06 00:36:31;;;;;;;12.52;5.22;;;5.90;99.90;;;;;;5019004;28;20068;-80
2023/10/06 00:38:57;;;;;;;3.85;2.95;;;5.90;99.90;;;;;;5002501;28;20022;-79
2023/10/06 00:41:26;;;;;;;5.47;3.33;;;5.90;99.90;;;;;;5015754;28;20114;-78
2023/10/06 00:43:52;;;;;;;3.77;2.70;;;5.90;99.90;;;;;;5002072;28;20049;-79
2023/10/06 00:46:21;;;;;;;5.32;3.47;;;6.00;99.90;;;;;;5013840;28;20022;-80
2023/10/06 00:48:57;;;;;;;9.65;3.50;;;5.80;99.90;;;;;;5010373;28;20018;-78
2023/10/06 00:51:26;;;;;;;5.95;3.65;;;5.90;99.90;;;;;;4995074;28;20034;-81
2023/10/06 00:53:56;;;;;;;8.23;3.50;;;5.70;99.90;;;;;;5010596;28;20018;-78
2023/10/06 00:56:25;;;;;;;7.15;3.83;;;5.80;99.90;;;;;;4992399;28;20054;-78
2023/10/06 00:58:54;;;;;;;9.30;3.53;;;6.10;99.90;;;;;;4991674;28;20022;-76
2023/10/06 01:01:21;;;;;;;;;;;5.90;99.90;;;;;;5010912;28;20393;-79
2023/10/06 01:04:00;;;;;;;7.80;3.92;;;5.90;99.90;;;;;;5012567;28;19901;-77
2023/10/06 01:06:33;;;;;;;9.20;3.78;;;5.80;99.90;;;;;;5013119;28;20038;-78
2023/10/06 01:09:13;;;;;;;5.25;2.90;;;6.10;99.90;;;;;;5012378;28;20030;-78
2023/10/06 01:11:51;;;;;;;5.93;3.20;;;5.70;99.90;;;;;;5012197;28;20014;-79
2023/10/06 01:14:22;;;;;;;6.63;3.42;;;5.70;99.90;;;;;;5013010;28;20018;-79
2023/10/06 01:16:51;;;;;;;4.55;3.05;;;5.50;99.90;;;;;;4995759;28;20218;-79
2023/10/06 01:19:25;;;;;;;5.55;2.53;;;5.50;99.90;;;;;;4995579;28;20022;-79
2023/10/06 01:21:55;;;;;;;6.65;3.15;;;5.50;99.90;;;;;;5012754;28;20105;-80
2023/10/06 01:24:26;;;;;;;4.53;2.95;;;5.40;99.90;;;;;;4995772;28;20053;-79
2023/10/06 01:27:10;;;;;;;7.43;3.53;;;5.40;99.90;;;;;;5013811;28;20125;-78
2023/10/06 01:29:36;;;;;;;7.97;3.45;;;5.30;99.90;;;;;;4996242;28;20018;-78
2023/10/06 01:32:05;;;;;;;5.03;3.35;;;5.30;99.90;;;;;;5013429;28;20032;-78
2023/10/06 01:34:38;;;;;;;7.75;2.72;;;5.20;99.90;;;;;;4996346;28;20042;-80
2023/10/06 01:37:09;;;;;;;5.97;3.15;;;5.10;99.90;;;;;;4996264;28;20318;-79
2023/10/06 01:39:35;;;;;;;9.90;4.38;;;5.00;99.90;;;;;;4993871;28;20025;-76
2023/10/06 01:42:04;;;;;;;8.93;3.67;;;5.00;99.90;;;;;;4990621;28;20022;-76
2023/10/06 01:44:30;;;;;;;5.70;2.90;;;5.00;99.90;;;;;;5008613;28;20026;-76
2023/10/06 01:46:57;;;;;;;5.65;3.13;;;5.00;99.90;;;;;;4991275;28;20274;-76
2023/10/06 01:49:23;;;;;;;3.88;2.75;;;5.00;99.90;;;;;;4991578;28;20022;-76
2023/10/06 01:51:52;;;;;;;9.43;3.63;;;5.00;99.90;;;;;;4991068;28;20045;-76
2023/10/06 01:54:19;;;;;;;6.97;4.43;;;4.90;99.90;;;;;;5008416;28;20026;-76
2023/10/06 01:56:46;;;;;;;9.45;4.15;;;5.10;99.90;;;;;;5007905;28;20091;-76
2023/10/06 01:59:14;;;;;;;8.18;4.00;;;5.10;99.90;;;;;;5008576;28;20018;-77
2023/10/06 02:01:41;;;;;;;5.20;3.25;;;5.20;99.90;;;;;;4991440;28;20262;-76
2023/10/06 02:04:10;;;;;;;6.93;3.22;;;5.20;99.90;;;;;;4991286;28;20085;-76
2023/10/06 02:06:46;;;;;;;;;;;5.20;99.90;;;;;;5009560;28;20025;-76
2023/10/06 02:09:15;;;;;;;9.30;4.78;;;5.10;99.90;;;;;;4991464;28;19902;-77
2023/10/06 02:11:45;;;;;;;7.63;4.18;;;5.10;99.90;;;;;;5008798;28;20014;-76
2023/10/06 02:14:11;;;;;;;;;;;5.00;99.90;;;;;;4991590;28;20022;-76
2023/10/06 02:16:40;;;;;;;7.85;5.40;;;5.00;99.90;;;;;;5013452;28;19961;-77
2023/10/06 02:19:12;;;;;;;7.80;3.75;;;5.00;99.90;;;;;;5000498;28;20014;-76
2023/10/06 02:21:42;;;;;;;7.50;3.47;;;5.10;99.90;;;;;;5017637;28;20041;-77
2023/10/06 02:24:09;;;;;;;5.88;4.05;;;5.00;99.90;;;;;;5013523;28;20019;-78
2023/10/06 02:26:36;;;;;;;5.20;2.83;;;4.90;99.90;;;;;;4991589;28;20018;-77
2023/10/06 02:29:03;;;;;;;6.93;3.08;;;4.80;99.90;;;;;;5006287;28;20018;-76
2023/10/06 02:31:28;;;;;;;6.82;4.03;;;4.80;99.90;;;;;;4989321;28;20085;-76
2023/10/06 02:33:54;;;;;;;5.75;3.33;;;4.80;99.90;;;;;;5006349;28;20065;-76
2023/10/06 02:36:23;;;;;;;6.93;3.22;;;4.80;99.90;;;;;;5009067;28;20025;-79
2023/10/06 02:38:53;;;;;;;7.25;4.78;;;4.70;99.90;;;;;;5015187;28;20018;-80
2023/10/06 02:41:23;;;;;;;12.77;5.90;;;4.70;99.90;;;;;;4997845;28;20093;-80
2023/10/06 02:43:51;;;;;;;8.20;4.40;;;4.80;99.90;;;;;;5014671;28;20025;-79
2023/10/06 02:46:22;;;;;;;13.35;4.35;;;4.80;99.90;;;;;;4996720;28;20045;-78
2023/10/06 02:48:51;;;;;;;7.43;4.00;;;4.90;99.90;;;;;;5014575;28;20037;-79
2023/10/06 02:51:18;;;;;;;6.18;3.53;;;4.90;99.90;;;;;;4999061;28;20053;-77
2023/10/06 02:53:49;;;;;;;4.95;3.50;;;4.90;99.90;;;;;;4995633;28;20089;-77
2023/10/06 02:56:18;;;;;;;8.55;4.80;;;4.90;99.90;;;;;;5009740;28;20018;-77
2023/10/06 02:58:46;;;;;;;5.53;3.72;;;4.80;99.90;;;;;;5010430;28;20076;-77
2023/10/06 03:01:14;;;;;;;11.45;5.95;;;4.80;99.90;;;;;;5011951;28;20041;-77
2023/10/06 03:03:40;;;;;;;11.65;6.43;;;4.70;99.90;;;;;;5013406;28;20030;-79
2023/10/06 03:06:08;;;;;;;8.05;4.55;;;4.80;99.90;;;;;;5014675;28;20046;-77
2023/10/06 03:08:35;;;;;;;4.57;3.45;;;4.80;99.90;;;;;;5013703;28;20017;-77
2023/10/06 03:11:01;;;;;;;8.35;3.25;;;4.70;99.90;;;;;;5013605;28;20022;-79
2023/10/06 03:13:36;;;;;;;5.03;3.90;;;4.70;99.90;;;;;;5011912;28;20024;-77
2023/10/06 03:16:03;;;;;;;5.28;3.97;;;4.70;99.90;;;;;;4994640;28;20057;-77
2023/10/06 03:18:31;;;;;;;7.90;3.72;;;4.60;99.90;;;;;;5012063;28;20121;-80
2023/10/06 03:21:04;;;;;;;8.73;4.47;;;4.50;99.90;;;;;;4995344;28;20054;-80
2023/10/06 03:23:31;;;;;;;9.23;5.60;;;4.60;99.90;;;;;;5013380;28;20022;-80
2023/10/06 03:25:57;;;;;;;9.55;5.32;;;4.60;99.90;;;;;;5013595;28;20017;-79
2023/10/06 03:28:49;;;;;;;7.10;4.25;;;4.70;99.90;;;;;;5013870;28;20041;-80
2023/10/06 03:33:45;;;;;;;7.47;4.10;;;4.50;99.90;;;;;;5013690;28;20045;-80
2023/10/06 03:36:15;;;;;;;11.48;4.93;;;4.60;99.90;;;;;;4997104;28;20018;-79
2023/10/06 03:38:44;;;;;;;9.27;5.45;;;4.50;99.90;;;;;;4996874;28;20022;-80
2023/10/06 03:41:18;;;;;;;17.23;7.55;;;4.50;99.90;;;;;;5014158;28;20035;-81
2023/10/06 03:44:03;;;;;;;17.20;4.85;;;4.50;99.90;;;;;;5012661;28;20022;-79
2023/10/06 03:46:36;;;;;;;11.02;5.78;;;4.50;99.90;;;;;;5015958;28;20034;-80
2023/10/06 03:49:05;;;;;;;10.90;6.32;;;4.50;99.90;;;;;;5001105;28;20015;-81
2023/10/06 03:51:42;;;;;;;10.98;4.60;;;4.50;99.90;;;;;;5018218;28;20057;-80
2023/10/06 03:54:10;;;;;;;7.90;3.38;;;4.50;99.90;;;;;;5011848;28;20024;-76
2023/10/06 03:56:37;;;;;;;5.53;3.77;;;4.60;99.90;;;;;;5009554;28;20025;-78
2023/10/06 03:59:12;;;;;;;6.38;4.25;;;4.30;99.90;;;;;;5009501;28;20018;-77
2023/10/06 04:01:39;;;;;;;8.57;4.10;;;4.20;99.90;;;;;;4993533;28;20034;-76
2023/10/06 04:04:08;;;;;;;6.65;4.22;;;4.30;99.90;;;;;;4995905;28;20090;-78
2023/10/06 04:06:36;;;;;;;10.07;3.85;;;4.20;99.90;;;;;;5012967;28;20018;-80
2023/10/06 04:09:02;;;;;;;10.50;5.20;;;4.10;99.90;;;;;;5013328;28;20030;-76
2023/10/06 04:11:31;;;;;;;18.13;6.45;;;4.10;99.90;;;;;;5010667;28;20029;-77
2023/10/06 04:13:58;;;;;;;9.70;6.03;;;4.20;99.90;;;;;;5010555;28;20015;-76
2023/10/06 04:16:25;;;;;;;16.15;6.82;;;4.20;99.90;;;;;;4993497;28;20026;-77
2023/10/06 04:18:55;;;;;;;7.90;4.72;;;4.20;99.90;;;;;;5011099;28;20018;-77
2023/10/06 04:21:24;;;;;;;6.30;5.18;;;4.20;99.90;;;;;;5013430;28;20041;-77
2023/10/06 04:23:49;;;;;;;10.25;5.57;;;4.20;99.90;;;;;;4997703;28;20069;-78
2023/10/06 04:26:15;;;;;;;8.75;4.65;;;4.20;99.90;;;;;;5017277;28;20015;-77
2023/10/06 04:28:47;;;;;;;10.35;4.47;;;4.20;99.90;;;;;;5013976;28;20022;-76
2023/10/06 04:31:15;;;;;;;10.27;5.43;;;4.10;99.90;;;;;;5011987;28;20070;-76
2023/10/06 04:33:40;;;;;;;16.63;6.00;;;4.20;99.90;;;;;;4994908;28;20054;-77
2023/10/06 04:36:09;;;;;;;11.88;5.88;;;4.30;99.90;;;;;;4994178;28;20214;-76
2023/10/06 04:38:39;;;;;;;8.30;4.78;;;4.30;99.90;;;;;;5011238;28;20026;-76
2023/10/06 04:41:10;;;;;;;8.32;5.03;;;4.20;99.90;;;;;;5011993;28;20050;-78
2023/10/06 04:43:36;;;;;;;12.65;5.57;;;4.30;99.90;;;;;;5012291;28;20016;-76
2023/10/06 04:46:05;;;;;;;8.77;6.03;;;4.30;99.90;;;;;;5012035;28;20081;-77
2023/10/06 04:48:35;;;;;;;10.32;6.18;;;4.30;99.90;;;;;;5011819;28;20025;-76
2023/10/06 04:51:04;;;;;;;9.05;4.30;;;4.30;99.90;;;;;;4995803;28;20086;-76
2023/10/06 04:53:34;;;;;;;9.40;4.88;;;4.30;99.90;;;;;;4978447;28;20022;-76
2023/10/06 04:56:03;;;;;;;11.05;4.65;;;4.30;99.90;;;;;;5010595;28;20029;-77
2023/10/06 04:58:29;;;;;;;11.18;6.05;;;4.30;99.90;;;;;;4978144;28;20042;-76
2023/10/06 05:00:59;;;;;;;10.30;4.22;;;4.30;99.90;;;;;;4994462;28;20053;-76
2023/10/06 05:03:26;;;;;;;;;;;4.40;99.90;;;;;;5012357;28;20207;-77
2023/10/06 05:05:58;;;;;;;10.23;6.00;;;4.40;99.90;;;;;;5011788;28;20004;-77
2023/10/06 05:08:25;;;;;;;10.52;4.72;;;4.40;99.90;;;;;;4994565;28;20319;-77
2023/10/06 05:10:55;;;;;;;17.05;5.25;;;4.50;99.90;;;;;;5012352;28;20024;-76
2023/10/06 05:13:21;;;;;;;11.35;5.78;;;4.50;99.90;;;;;;5011629;28;20019;-77
2023/10/06 05:15:47;;;;;;;12.38;5.68;;;4.50;99.90;;;;;;4991684;28;20129;-76
2023/10/06 05:18:16;;;;;;;21.08;5.88;;;4.40;99.90;;;;;;5009646;28;20029;-76
2023/10/06 05:20:42;;;;;;;13.13;5.88;;;4.30;99.90;;;;;;4993700;28;20030;-77
2023/10/06 05:23:09;;;;;;;12.05;4.63;;;4.40;99.90;;;;;;5014532;28;20029;-76
2023/10/06 05:25:37;;;;;;;15.18;7.47;;;4.40;99.90;;;;;;5012790;28;20046;-76
2023/10/06 05:28:10;;;;;;;10.80;5.15;;;4.40;99.90;;;;;;4995815;28;20049;-76
2023/10/06 05:30:37;;;;;;;9.05;4.47;;;4.30;99.90;;;;;;5014299;28;20029;-77
2023/10/06 05:33:05;;;;;;;8.43;4.90;;;4.30;99.90;;;;;;5012183;28;20156;-77
2023/10/06 05:35:38;;;;;;;10.05;4.57;;;4.30;99.90;;;;;;5013338;28;20026;-77
2023/10/06 05:38:08;;;;;;;14.43;5.50;;;4.30;99.90;;;;;;4994370;28;20050;-79
2023/10/06 05:40:34;;;;;;;9.55;5.60;;;4.40;99.90;;;;;;4990148;28;20210;-79
2023/10/06 05:43:00;;;;;;;14.60;5.70;;;4.40;99.90;;;;;;4989913;28;20042;-79
2023/10/06 05:45:29;;;;;;;9.70;5.15;;;4.60;99.90;;;;;;4990772;28;20029;-78
2023/10/06 05:47:58;;;;;;;11.47;5.13;;;4.70;99.90;;;;;;4991014;28;20018;-78
2023/10/06 05:50:28;;;;;;;8.88;5.07;;;4.70;99.90;;;;;;4990039;28;20319;-79
2023/10/06 05:53:04;;;;;;;7.30;5.10;;;4.70;99.90;;;;;;4990106;28;20023;-78
2023/10/06 05:55:35;;;;;;;11.65;5.63;;;4.80;99.90;;;;;;5007370;28;20010;-78
2023/10/06 05:58:03;;;;;;;16.27;5.22;;;4.90;99.90;;;;;;4989365;28;20064;-78
2023/10/06 06:00:30;;;;;;;12.10;5.00;;;4.90;99.90;;;;;;4992035;28;20061;-79
2023/10/06 06:03:10;;;;;;;10.27;5.35;;;4.90;99.90;;;;;;4990526;28;20049;-78
2023/10/06 06:05:38;;;;;;;10.75;5.68;;;5.00;99.90;;;;;;4989707;28;20041;-78
2023/10/06 06:08:05;;;;;;;11.90;6.32;;;5.10;99.90;;;;;;4989937;28;20026;-79
2023/10/06 06:10:30;;;;;;;9.82;4.97;;;5.30;99.90;;;;;;5008049;28;20025;-79
2023/10/06 06:12:56;;;;;;;11.77;5.13;;;5.30;99.90;;;;;;4990446;28;20018;-78
2023/10/06 06:15:23;;;;;;;12.30;5.82;;;5.50;99.90;;;;;;5007571;28;20026;-80
2023/10/06 06:17:50;;;;;;;6.60;4.63;;;5.50;99.90;;;;;;4989520;28;20019;-79
2023/10/06 06:20:18;;;;;;;9.80;4.25;;;5.60;99.90;;;;;;4989341;28;20028;-78
2023/10/06 06:22:53;;;;;;;13.23;5.03;;;5.60;99.90;;;;;;4989557;28;20073;-79
2023/10/06 06:25:22;;;;;;;16.33;6.10;;;5.50;99.90;;;;;;4989084;28;20310;-79
2023/10/06 06:27:48;;;;;;;6.93;5.00;;;5.60;99.90;;;;;;4989293;28;20097;-79
2023/10/06 06:30:18;;;;;;;6.18;4.80;;;5.70;99.90;;;;;;4989155;28;20034;-78
2023/10/06 06:32:45;;;;;;;8.93;5.05;;;5.80;99.90;;;;;;4989233;28;20042;-77
2023/10/06 06:35:13;;;;;;;9.00;4.35;;;6.00;99.90;;;;;;4990440;28;20053;-79
2023/10/06 06:37:42;;;;;;;11.27;4.57;;;6.20;99.90;;;;;;4990122;28;20195;-78
2023/10/06 06:40:10;;;;;;;10.93;4.57;;;6.40;99.90;;;;;;4990116;28;20089;-79
2023/10/06 06:42:36;;;;;;;10.65;5.53;;;6.40;99.90;;;;;;5008283;28;20080;-79
2023/10/06 06:45:03;;;;;;;7.85;3.97;;;6.50;99.90;;;;;;4990737;28;20030;-79
2023/10/06 06:47:29;;;;;;;9.50;5.97;;;6.60;99.90;;;;;;4975155;28;20065;-78
2023/10/06 06:49:55;;;;;;;11.13;4.38;;;6.70;99.90;;;;;;5007233;28;20030;-79
2023/10/06 06:52:22;;;;;;;8.85;4.72;;;6.80;99.90;;;;;;4990757;28;20045;-78
2023/10/06 06:54:48;;;;;;;9.80;4.75;;;6.90;99.90;;;;;;4993733;28;20022;-79
2023/10/06 06:57:17;;;;;;;8.15;4.15;;;6.90;99.90;;;;;;4990996;28;20073;-78
2023/10/06 06:59:44;;;;;;;9.27;4.63;;;7.00;99.90;;;;;;4992860;28;20029;-80
2023/10/06 07:02:11;;;;;;;9.90;4.47;;;7.10;99.90;;;;;;4992138;28;20069;-78
2023/10/06 07:04:38;;;;;;;9.07;4.15;;;7.20;99.90;;;;;;5008916;28;20050;-79
2023/10/06 07:07:03;;;;;;;7.68;4.38;;;7.30;99.90;;;;;;4992179;28;20191;-80
2023/10/06 07:09:29;;;;;;;8.13;4.13;;;7.30;99.90;;;;;;4990244;28;20048;-80
2023/10/06 07:11:55;;;;;;;9.25;5.28;;;7.40;99.90;;;;;;4989023;28;20045;-79
2023/10/06 07:14:21;;;;;;;10.43;4.80;;;7.40;99.90;;;;;;4973232;28;20030;-79
2023/10/06 07:16:48;;;;;;;8.77;4.43;;;7.50;99.90;;;;;;4989329;28;20046;-79
2023/10/06 07:19:14;;;;;;;7.38;4.10;;;7.50;99.90;;;;;;5007137;28;20053;-79
2023/10/06 07:21:41;;;;;;;8.95;3.97;;;7.60;99.90;;;;;;4989862;28;20234;-78
2023/10/06 07:24:10;;;;;;;7.55;3.92;;;7.70;99.90;;;;;;4989150;28;20022;-77
2023/10/06 07:26:36;;;;;;;7.72;4.22;;;7.80;99.90;;;;;;5006887;28;20043;-79
2023/10/06 07:29:05;;;;;;;6.88;4.70;;;7.90;99.90;;;;;;4989632;28;20129;-78
2023/10/06 07:31:31;;;;;;;9.32;4.38;;;7.90;99.90;;;;;;4989548;28;20037;-78
2023/10/06 07:34:03;;;;;;;5.07;4.57;;;8.00;99.90;;;;;;5006805;28;20242;-78
2023/10/06 07:36:29;;;;;;;7.35;4.60;;;8.20;99.90;;;;;;4989608;28;20045;-78
2023/10/06 07:38:54;;;;;;;8.50;4.70;;;8.20;99.90;;;;;;5007004;28;20018;-78
2023/10/06 07:41:23;;;;;;;8.68;5.38;;;8.20;99.90;;;;;;4989048;28;20101;-79
2023/10/06 07:43:49;;;;;;;6.07;4.18;;;8.50;99.90;;;;;;5007014;28;20010;-78
2023/10/06 07:46:16;;;;;;;9.05;3.70;;;8.60;99.90;;;;;;5006982;28;20019;-79
2023/10/06 07:48:45;;;;;;;6.72;3.67;;;8.80;99.90;;;;;;4989685;28;20314;-79
2023/10/06 07:51:13;;;;;;;45.95;5.03;;;8.90;99.90;;;;;;4989438;28;20217;-78
2023/10/06 07:53:39;;;;;;;8.77;4.65;;;9.00;99.90;;;;;;4991005;28;20019;-79
2023/10/06 07:56:08;;;;;;;9.40;4.47;;;9.00;99.90;;;;;;5009357;28;20076;-79
2023/10/06 07:58:37;;;;;;;9.48;4.18;;;9.10;99.90;;;;;;5007022;28;20061;-79
2023/10/06 08:01:07;;;;;;;9.30;4.50;;;9.20;99.90;;;;;;4992330;28;20033;-79
2023/10/06 08:03:34;;;;;;;6.75;4.50;;;9.30;99.90;;;;;;4993822;28;20022;-78
2023/10/06 08:06:01;;;;;;;7.95;4.47;;;9.40;99.90;;;;;;5011057;28;20254;-78
2023/10/06 08:08:28;;;;;;;6.18;4.72;;;9.60;99.90;;;;;;4996418;28;20022;-80
2023/10/06 08:10:56;;;;;;;7.13;4.40;;;9.50;99.90;;;;;;5013239;28;20045;-81
2023/10/06 08:13:22;;;;;;;9.73;4.90;;;9.60;99.90;;;;;;4996606;28;20018;-78
2023/10/06 08:15:48;;;;;;;9.35;4.32;;;9.70;99.90;;;;;;5015952;28;20018;-78
2023/10/06 08:18:16;;;;;;;4.88;4.18;;;9.80;99.90;;;;;;5020010;28;20025;-79
2023/10/06 08:20:42;;;;;;;10.32;4.28;;;9.90;99.90;;;;;;4993686;28;20030;-78
2023/10/06 08:23:11;;;;;;;7.45;4.38;;;10.00;99.90;;;;;;5015658;28;20038;-79
2023/10/06 08:25:37;;;;;;;10.68;4.20;;;10.00;99.90;;;;;;4998624;28;20030;-78
2023/10/06 08:28:05;;;;;;;5.72;3.83;;;10.20;99.90;;;;;;5002390;28;20022;-78
2023/10/06 08:30:32;;;;;;;8.43;4.78;;;10.40;99.90;;;;;;4997380;28;20018;-78
2023/10/06 08:32:59;;;;;;;8.70;4.40;;;10.60;99.90;;;;;;4995681;28;20050;-81
2023/10/06 08:35:26;;;;;;;7.22;4.03;;;10.60;99.90;;;;;;5004683;28;20014;-78
2023/10/06 08:37:52;;;;;;;6.65;3.47;;;10.60;99.90;;;;;;5001366;28;20314;-79
2023/10/06 08:40:22;;;;;;;5.32;3.17;;;10.70;99.90;;;;;;5001101;28;20018;-81
2023/10/06 08:42:52;;;;;;;7.15;4.03;;;10.80;99.90;;;;;;5020288;28;20021;-80
2023/10/06 08:45:22;;;;;;;4.85;3.38;;;10.80;99.90;;;;;;5016802;28;20023;-82
2023/10/06 08:47:58;;;;;;;5.38;3.67;;;10.90;99.90;;;;;;5001964;28;20093;-79
2023/10/06 08:50:33;;;;;;;7.65;4.50;;;11.00;99.90;;;;;;5000959;28;20021;-81
2023/10/06 08:53:35;;;;;;;6.57;3.30;;;11.10;99.90;;;;;;5005382;28;20025;-80
2023/10/06 08:56:20;;;;;;;6.07;4.20;;;11.20;99.90;;;;;;5011147;28;20030;-79
2023/10/06 08:58:46;;;;;;;7.35;4.35;;;11.40;99.90;;;;;;4991863;28;20025;-80
2023/10/06 09:01:13;;;;;;;6.47;4.22;;;11.60;99.90;;;;;;4997358;28;20041;-80
2023/10/06 09:03:39;;;;;;;7.25;3.65;;;11.80;99.90;;;;;;4991842;28;20019;-79
2023/10/06 09:06:06;;;;;;;13.52;4.47;;;11.90;99.90;;;;;;4991538;28;20069;-79
2023/10/06 09:08:40;;;;;;;11.18;4.90;;;12.00;99.90;;;;;;5010857;28;20026;-80
2023/10/06 09:11:06;;;;;;;6.32;4.40;;;12.20;99.90;;;;;;4995005;28;20175;-78
2023/10/06 09:13:31;;;;;;;11.63;3.95;;;12.30;99.90;;;;;;5012179;28;20084;-80
2023/10/06 09:16:04;;;;;;;7.40;4.07;;;12.40;99.90;;;;;;5009569;28;20045;-79
2023/10/06 09:18:31;;;;;;;5.65;3.95;;;12.60;99.90;;;;;;5011737;28;20026;-80
2023/10/06 09:21:22;;;;;;;10.48;3.85;;;12.50;99.90;;;;;;5016047;28;20030;-80
2023/10/06 09:23:49;;;;;;;10.63;4.00;;;12.70;99.90;;;;;;5016250;28;20089;-81
2023/10/06 09:26:27;;;;;;;8.60;4.25;;;12.80;99.90;;;;;;5000761;28;20022;-79
2023/10/06 09:29:01;;;;;;;7.97;3.80;;;13.00;99.90;;;;;;4997858;28;20022;-79
2023/10/06 09:31:53;;;;;;;10.68;3.50;;;13.00;99.90;;;;;;4993103;28;20029;-78
2023/10/06 09:34:25;;;;;;;8.02;4.05;;;13.20;99.90;;;;;;5008047;28;20102;-78
2023/10/06 09:36:51;;;;;;;5.82;4.32;;;13.20;99.90;;;;;;4995989;28;20022;-77
2023/10/06 09:39:34;;;;;;;7.72;4.43;;;13.20;99.90;;;;;;4993276;28;20274;-78
2023/10/06 09:42:05;;;;;;;12.52;4.20;;;13.40;99.90;;;;;;4991692;28;20105;-78
2023/10/06 09:44:34;;;;;;;9.38;4.25;;;13.50;99.90;;;;;;4989696;28;20077;-79
2023/10/06 09:47:01;;;;;;;9.15;4.20;;;13.60;99.90;;;;;;5008066;28;20317;-78
2023/10/06 09:49:28;;;;;;;7.68;4.50;;;13.60;99.90;;;;;;5009670;28;20056;-78
2023/10/06 09:52:01;;;;;;;7.03;4.32;;;13.70;99.90;;;;;;4989665;28;20307;-79
2023/10/06 09:54:28;;;;;;;13.02;4.85;;;13.90;99.90;;;;;;4990756;28;20073;-78
2023/10/06 09:56:55;;;;;;;7.78;3.65;;;14.10;99.90;;;;;;4990990;28;20025;-78
2023/10/06 09:59:23;;;;;;;10.90;3.78;;;14.30;99.90;;;;;;4991356;28;20022;-79
2023/10/06 10:01:51;;;;;;;6.38;3.85;;;14.50;99.90;;;;;;5007841;28;20030;-78
2023/10/06 10:04:18;;;;;;;7.15;4.30;;;14.70;99.90;;;;;;4990787;28;20042;-78
2023/10/06 10:06:44;;;;;;;8.18;3.88;;;14.70;99.90;;;;;;4990905;28;20022;-78
2023/10/06 10:09:15;;;;;;;11.40;3.92;;;14.80;99.90;;;;;;4992512;28;20014;-78
2023/10/06 10:11:50;;;;;;;6.15;3.25;;;14.70;99.90;;;;;;4992330;28;20025;-79
2023/10/06 10:14:32;;;;;;;12.85;4.63;;;14.80;99.90;;;;;;4991562;28;20038;-78
2023/10/06 10:17:19;;;;;;;5.70;3.67;;;15.00;99.90;;;;;;4992468;28;20021;-78
2023/10/06 10:19:46;;;;;;;7.72;3.83;;;15.10;99.90;;;;;;4991423;28;20041;-79
2023/10/06 10:22:16;;;;;;;11.80;4.25;;;15.10;99.90;;;;;;4989759;28;20094;-78
2023/10/06 10:24:43;;;;;;;;;;;15.20;99.90;;;;;;5008034;28;20041;-77
2023/10/06 10:27:13;;;;;;;8.80;3.63;;;15.30;99.90;;;;;;5007675;28;19902;-78
2023/10/06 10:29:41;;;;;;;10.48;5.18;;;15.40;99.90;;;;;;5008375;28;20022;-78
2023/10/06 10:32:15;;;;;;;7.35;3.92;;;15.50;99.90;;;;;;5005748;28;20014;-79
2023/10/06 10:35:10;;;;;;;6.97;4.35;;;15.70;99.90;;;;;;5006442;28;20046;-78
2023/10/06 10:37:55;;;;;;;8.18;3.83;;;15.80;99.90;;;;;;4988416;28;20025;-79
2023/10/06 10:40:26;;;;;;;9.05;3.28;;;15.90;99.90;;;;;;4987987;28;20080;-78
2023/10/06 10:43:06;;;;;;;17.90;4.15;;;16.00;99.90;;;;;;5004834;28;20029;-85
2023/10/06 10:45:34;;;;;;;;;;;16.20;99.90;;;;;;4996567;28;20014;-78
2023/10/06 10:48:05;;;;;;;7.05;3.88;;;16.20;99.90;;;;;;5013068;28;20082;-79
2023/10/06 10:50:52;;;;;;;10.48;4.15;;;16.30;99.90;;;;;;4994747;28;20019;-78
2023/10/06 10:53:19;;;;;;;9.73;4.32;;;16.40;99.90;;;;;;4989363;28;20064;-83
2023/10/06 10:55:45;;;;;;;5.97;3.75;;;16.40;99.90;;;;;;4994864;28;20019;-77
2023/10/06 10:58:11;;;;;;;10.90;4.93;;;16.40;99.90;;;;;;5009439;28;20018;-79
2023/10/06 11:00:36;;;;;;;4.88;3.58;;;16.50;99.90;;;;;;5008833;28;20031;-80
2023/10/06 11:03:04;;;;;;;9.32;4.28;;;16.60;99.90;;;;;;5012204;28;20018;-78
2023/10/06 11:05:31;;;;;;;10.02;4.07;;;16.70;99.90;;;;;;5009265;28;20014;-78
2023/10/06 11:08:05;;;;;;;11.65;3.50;;;16.80;99.90;;;;;;5007474;28;20014;-77
2023/10/06 11:10:32;;;;;;;8.40;4.05;;;16.90;99.90;;;;;;4990669;28;20060;-79
2023/10/06 11:13:18;;;;;;;8.07;3.65;;;17.00;99.90;;;;;;5005191;28;20025;-79
2023/10/06 11:15:45;;;;;;;8.35;3.65;;;17.10;99.90;;;;;;5004222;28;20022;-79
2023/10/06 11:18:13;;;;;;;10.25;3.50;;;17.30;99.90;;;;;;5004477;28;20065;-77
2023/10/06 11:20:39;;;;;;;4.38;2.75;;;17.50;99.90;;;;;;4986966;28;20041;-78
2023/10/06 11:23:06;;;;;;;5.95;3.33;;;17.60;99.90;;;;;;5004608;28;20014;-78
2023/10/06 11:25:35;;;;;;;6.13;3.35;;;17.60;99.90;;;;;;5004333;28;20030;-78
2023/10/06 11:28:04;;;;;;;13.35;3.78;;;17.70;99.90;;;;;;4987628;28;20050;-78
2023/10/06 11:30:32;;;;;;;10.75;3.97;;;17.70;99.90;;;;;;5003916;28;20022;-81
2023/10/06 11:33:04;;;;;;;18.27;3.97;;;17.90;99.90;;;;;;4986872;28;20046;-81
2023/10/06 11:35:38;;;;;;;8.18;3.50;;;18.00;99.90;;;;;;4986414;28;20034;-83
2023/10/06 11:38:06;;;;;;;9.80;3.28;;;18.10;99.90;;;;;;4986660;28;20255;-79
2023/10/06 11:40:34;;;;;;;4.97;3.15;;;18.20;99.90;;;;;;4986493;28;20018;-78
2023/10/06 11:43:17;;;;;;;4.07;3.00;;;18.30;99.90;;;;;;5004080;28;20022;-79
2023/10/06 11:45:44;;;;;;;6.25;3.53;;;18.40;99.90;;;;;;4999950;28;20030;-83
2023/10/06 11:48:31;;;;;;;8.00;3.83;;;18.60;99.90;;;;;;4990396;28;20097;-79
2023/10/06 11:51:12;;;;;;;5.80;2.97;;;18.70;99.90;;;;;;4997366;28;20018;-78
2023/10/06 11:53:40;;;;;;;5.53;2.95;;;18.70;99.90;;;;;;5010787;28;20022;-81
2023/10/06 11:56:10;;;;;;;4.20;2.92;;;18.90;99.90;;;;;;4986666;28;20105;-85
2023/10/06 11:58:36;;;;;;;6.85;3.05;;;19.00;99.90;;;;;;4986927;28;20341;-84
2023/10/06 12:01:05;;;;;;;8.13;3.17;;;19.20;99.70;;;;;;4986403;28;20081;-85
2023/10/06 12:03:39;;;;;;;3.97;2.70;;;19.40;99.40;;;;;;5003910;28;20014;-83
2023/10/06 12:06:11;;;;;;;5.85;2.30;;;19.70;99.10;;;;;;4986627;28;20022;-80
2023/10/06 12:08:52;;;;;;;5.43;2.92;;;20.10;97.80;;;;;;4986647;28;20250;-79
2023/10/06 12:11:20;;;;;;;4.60;2.40;;;20.70;96.40;;;;;;5004081;28;20018;-81
2023/10/06 12:13:46;;;;;;;6.30;2.38;;;21.60;94.90;;;;;;5003894;28;20202;-81
2023/10/06 12:16:15;;;;;;;4.70;2.05;;;23.10;91.90;;;;;;4985265;28;20037;-79
2023/10/06 12:18:44;;;;;;;4.80;2.58;;;24.70;88.10;;;;;;4986048;28;20022;-79
2023/10/06 12:21:17;;;;;;;8.60;2.90;;;26.40;80.20;;;;;;4986112;28;20037;-79
2023/10/06 12:23:44;;;;;;;3.67;2.20;;;27.50;74.00;;;;;;4986120;28;20026;-79
2023/10/06 12:26:10;;;;;;;4.13;2.38;;;28.00;66.40;;;;;;5003585;28;20022;-79
2023/10/06 12:28:38;;;;;;;5.97;3.03;;;27.50;65.40;;;;;;4986352;28;20080;-79
2023/10/06 12:31:05;;;;;;;4.93;2.58;;;26.50;65.40;;;;;;4986209;28;20052;-80
2023/10/06 12:33:32;;;;;;;5.13;2.72;;;27.20;65.60;;;;;;4981808;28;20472;-79
2023/10/06 12:35:59;;;;;;;3.78;2.10;;;28.60;64.20;;;;;;4984031;28;20038;-80
2023/10/06 12:38:26;;;;;;;4.80;3.00;;;29.80;61.60;;;;;;4983972;28;20021;-80
2023/10/06 12:40:53;;;;;;;7.95;2.92;;;28.50;60.70;;;;;;4982868;28;20034;-80
2023/10/06 12:43:19;;;;;;;6.18;2.20;;;26.90;62.70;;;;;;4983119;28;20030;-81
2023/10/06 12:45:45;;;;;;;3.92;2.80;;;27.00;62.60;;;;;;4983063;28;20019;-80
2023/10/06 12:48:11;;;;;;;5.70;2.55;;;27.40;61.50;;;;;;4983492;28;20019;-79
2023/10/06 12:50:40;;;;;;;4.88;1.92;;;28.00;61.00;;;;;;4985911;28;20022;-79
2023/10/06 12:53:08;;;;;;;;;;;28.00;60.20;;;;;;4987788;28;20019;-80
2023/10/06 12:55:34;;;;;;;3.40;2.72;;;27.40;60.90;;;;;;4987301;28;19973;-80
2023/10/06 12:58:00;;;;;;;6.20;2.63;;;26.80;60.70;;;;;;4987326;28;20026;-79
2023/10/06 13:00:28;;;;;;;3.47;2.33;;;27.10;61.00;;;;;;4987106;28;20050;-79
2023/10/06 13:02:53;;;;;;;2.97;2.00;;;27.90;59.30;;;;;;4986044;28;20022;-80
2023/10/06 13:05:22;;;;;;;3.67;2.08;;;28.80;59.30;;;;;;4986008;28;20049;-79
2023/10/06 13:07:51;;;;;;;4.22;2.25;;;30.30;57.60;;;;;;4987149;28;20011;-79
2023/10/06 13:10:22;;;;;;;4.22;2.30;;;31.00;56.10;;;;;;4986955;28;20023;-80